Sunday, June 17, 2018, 10:15 PM EDT
Back to Local

KOXB, Ocean City Municipal Airport

Location: Berlin, MD, United States Lat: 38.317
Local Time: 10:15 PM EDT ( 2:15 GMT) Lon: -75.117
Time Zone: US/Eastern Elev: 13 ft

Show me the last for .
Show Coded

Time T Td Feel RH Dir Speed Gust Alt SLP Vis Weather Sky Remarks
2018-06-17 21:53 72 70 76 93 - Calm - 30.11 30.11 10 -RA CLR 1-hr Precip Total: Trace
2018-06-17 20:53 72 70 76 93 Variable 3 - 30.10 30.09 10 SCT110 None
2018-06-17 19:53 72 70 76 93 Variable 3 - 30.08 30.08 10 CLR 6-hr Min Temp (8pm): 72.0°F
6-hr Max Temp (8pm): 79.0°F
2018-06-17 18:53 74 70 78 87 150° 5 - 30.08 30.08 10 CLR None
2018-06-17 17:53 75 70 79 84 130° 7 - 30.09 30.09 10 CLR None
2018-06-17 16:53 77 70 81 79 140° 7 - 30.09 30.09 10 CLR None
2018-06-17 15:53 77 69 80 76 130° 8 - 30.09 30.09 10 CLR None
2018-06-17 14:53 78 70 82 76 130° 6 - 30.09 30.09 10 CLR None
2018-06-17 13:53 78 70 82 76 Variable 5 - 30.10 30.10 10 CLR 6-hr Min Temp (2pm): 72.0°F
6-hr Max Temp (2pm): 78.1°F
2018-06-17 12:53 77 70 81 79 140° 5 - 30.11 30.11 10 CLR None
2018-06-17 11:53 78 70 82 76 150° 5 - 30.12 30.11 10 CLR None
2018-06-17 10:53 76 70 80 81 170° 5 - 30.11 30.10 10 CLR None
2018-06-17 09:53 75 70 79 84 120° 6 - 30.11 30.11 10 CLR None
2018-06-17 08:53 74 69 78 84 150° 5 - 30.10 30.09 10 CLR None
2018-06-17 07:53 73 68 77 84 210° 6 - 30.08 30.08 10 CLR 6-hr Precip Total (8am): 0.00"
6-hr Min Temp (8am): 68.0°F
6-hr Max Temp (8am): 73.0°F
2018-06-17 06:53 71 67 76 86 160° 3 - 30.07 30.06 10 CLR None
2018-06-17 05:53 69 66 - 90 230° 3 - 30.07 30.06 10 CLR None
2018-06-17 04:53 70 66 - 87 200° 6 - 30.05 30.05 10 CLR 1-hr Precip Total: Trace
6-hr Precip Total (5am): 0.00"
2018-06-17 03:53 71 63 76 75 210° 5 - 30.05 30.04 10 CLR None
2018-06-17 02:53 72 60 76 66 210° 7 - 30.06 30.06 10 CLR None
2018-06-17 01:53 73 59 77 61 220° 9 - 30.07 30.07 10 CLR 6-hr Min Temp (2am): 70.0°F
6-hr Max Temp (2am): 73.9°F
2018-06-17 00:53 72 58 76 61 230° 7 - 30.08 30.08 10 CLR 24-hr Min Temp (1am): 54.0°F
24-hr Max Temp (1am): 80.1°F
2018-06-16 23:53 72 58 76 61 230° 8 - 30.07 30.07 10 CLR None
2018-06-16 22:53 71 60 76 68 240° 5 - 30.07 30.07 10 CLR None

Support USWX by starting your Amazon purchase here.